Time;durP1;ratioP1;P1;durP2;ratioP2;P2;SDS_P1;SDS_P2;PMS_P1;PMS_P2;Temp;Humidity;BMP_temperature;BMP_pressure;BME280_temperature;BME280_humidity;BME280_pressure;Samples;Min_cycle;Max_cycle;Signal;HPM_P1;HPM_P2
2022/05/23 00:01:33;;;;;;;;;;;;;;;19.30;98.23;97309.28;5147355;27;19991;-65
2022/05/23 00:03:59;;;;;;;;;;;;;;;19.21;100.00;97301.25;5146262;27;20003;-63
2022/05/23 00:06:25;;;;;;;;;;;;;;;20.35;91.27;97282.25;5143902;27;19924;-64
2022/05/23 00:08:53;;;;;;;;;;;;;;;20.08;89.65;97274.78;5144008;27;20010;-64
2022/05/23 00:11:21;;;;;;;;;;;;;;;20.49;86.60;97260.19;5135741;27;19923;-63
2022/05/23 00:13:47;;;;;;;;;;;;;;;20.88;82.83;97256.69;5142873;27;20010;-63
2022/05/23 00:16:17;;;;;;;;;;;;;;;21.22;79.71;97251.81;5144377;27;19934;-63
2022/05/23 00:18:44;;;;;;;;;;;;;;;21.39;77.78;97244.13;5143714;27;20458;-63
2022/05/23 00:21:11;;;;;;;;;;;;;;;21.51;76.45;97245.97;5146330;27;20571;-63
2022/05/23 00:23:37;;;;;;;;;;;;;;;21.51;75.64;97240.53;5147549;27;19987;-64
2022/05/23 00:26:05;;;;;;;;;;;;;;;21.56;75.32;97242.22;5145548;27;19919;-64
2022/05/23 00:28:31;;;;;;;;;;;;;;;21.57;76.19;97246.50;5144059;27;19994;-63
2022/05/23 00:30:57;;;;;;;;;;;;;;;21.62;76.37;97246.25;5144478;27;19983;-64
2022/05/23 00:36:08;;;;;;;;;;;;;;;21.62;76.11;97248.97;5144708;27;19949;-64
2022/05/23 00:38:34;;;;;;;;;;;;;;;21.66;75.23;97256.06;5143484;27;19980;-62
2022/05/23 00:43:51;;;;;;;;;;;;;;;21.60;75.43;97262.88;5145570;27;20004;-64
2022/05/23 00:46:17;;;;;;;;;;;;;;;21.57;76.33;97260.09;5134678;27;19994;-63
2022/05/23 00:48:43;;;;;;;;;;;;;;;21.48;77.68;97260.25;5142965;27;19991;-63
2022/05/23 00:51:11;;;;;;;;;;;;;;;21.58;77.30;97254.31;5145258;27;19930;-63
2022/05/23 00:53:40;;;;;;;;;;;;;;;21.60;77.40;97260.16;5146567;27;19943;-63
2022/05/23 00:56:07;;;;;;;;;;;;;;;21.56;77.37;97272.09;5144192;27;19923;-63
2022/05/23 00:58:36;;;;;;;;;;;;;;;21.54;77.24;97273.22;5142682;27;19924;-65
2022/05/23 01:01:06;;;;;;;;;;;;;;;21.37;77.47;97272.78;5143844;27;19931;-65
2022/05/23 01:03:32;;;;;;;;;;;;;;;20.63;81.69;97273.38;5146302;27;19955;-64
2022/05/23 01:05:59;;;;;;;;;;;;;;;21.05;80.25;97269.16;5145072;27;19931;-64
2022/05/23 01:08:26;;;;;;;;;;;;;;;21.03;79.30;97266.00;5142716;27;19987;-63
2022/05/23 01:10:52;;;;;;;;;;;;;;;20.51;82.96;97268.00;5142553;27;19943;-64
2022/05/23 01:13:19;;;;;;;;;;;;;;;20.35;85.26;97268.69;5144947;27;19991;-64
2022/05/23 01:15:46;;;;;;;;;;;;;;;20.26;85.87;97281.59;5145922;27;19994;-63
2022/05/23 01:18:14;;;;;;;;;;;;;;;20.28;86.79;97278.53;5142859;27;19963;-63
2022/05/23 01:20:40;;;;;;;;;;;;;;;20.20;87.58;97282.13;5142413;27;19991;-63
2022/05/23 01:23:10;;;;;;;;;;;;;;;20.34;86.94;97271.72;5144313;27;19955;-64
2022/05/23 01:25:40;;;;;;;;;;;;;;;20.66;84.49;97259.94;5146021;27;19930;-64
2022/05/23 01:28:07;;;;;;;;;;;;;;;20.87;82.84;97255.09;5143730;27;19925;-64
2022/05/23 01:30:34;;;;;;;;;;;;;;;21.12;81.51;97246.88;5142342;27;19928;-63
2022/05/23 01:33:03;;;;;;;;;;;;;;;21.21;80.56;97236.66;5143348;27;19923;-64
2022/05/23 01:35:31;;;;;;;;;;;;;;;20.87;82.81;97244.25;5145904;27;19930;-63
2022/05/23 01:37:58;;;;;;;;;;;;;;;21.17;80.66;97243.94;5144491;27;19953;-63
2022/05/23 01:40:24;;;;;;;;;;;;;;;20.67;84.38;97237.09;5142008;27;19991;-64
2022/05/23 01:42:52;;;;;;;;;;;;;;;20.69;84.38;97239.44;5140966;27;19947;-64
2022/05/23 01:45:20;;;;;;;;;;;;;;;20.80;83.88;97245.97;5133545;27;19924;-64
2022/05/23 01:47:47;;;;;;;;;;;;;;;21.10;81.71;97255.38;5141813;27;19924;-64
2022/05/23 01:50:15;;;;;;;;;;;;;;;21.18;81.24;97262.56;5144840;27;19954;-63
2022/05/23 01:52:41;;;;;;;;;;;;;;;21.34;80.02;97259.88;5145090;27;19986;-64
2022/05/23 01:55:08;;;;;;;;;;;;;;;21.29;80.23;97252.78;5142666;27;19924;-63
2022/05/23 01:57:34;;;;;;;;;;;;;;;20.57;85.77;97243.00;5141499;27;19950;-64
2022/05/23 02:02:47;;;;;;;;;;;;;;;20.16;90.15;97254.91;5144869;27;19924;-64
2022/05/23 02:05:14;;;;;;;;;;;;;;;19.57;95.23;97248.34;5142014;27;19977;-63
2022/05/23 02:07:41;;;;;;;;;;;;;;;19.50;96.14;97248.88;5141254;27;19987;-64
2022/05/23 02:10:07;;;;;;;;;;;;;;;19.56;97.09;97249.50;5143149;27;19930;-64
2022/05/23 02:12:34;;;;;;;;;;;;;;;20.11;91.46;97249.72;5138142;27;19924;-63
2022/05/23 02:15:00;;;;;;;;;;;;;;;20.59;88.53;97250.78;5142215;27;19945;-64
2022/05/23 02:17:28;;;;;;;;;;;;;;;20.76;86.73;97240.44;5144779;27;19995;-63
2022/05/23 02:19:54;;;;;;;;;;;;;;;20.13;90.60;97239.31;5144135;27;19970;-64
2022/05/23 02:22:21;;;;;;;;;;;;;;;19.62;93.60;97238.06;5141017;27;19934;-64
2022/05/23 02:24:47;;;;;;;;;;;;;;;19.20;94.87;97233.91;5140846;27;19927;-67
2022/05/23 02:27:14;;;;;;;;;;;;;;;19.00;95.45;97224.72;5144062;27;20504;-64
2022/05/23 02:29:40;;;;;;;;;;;;;;;19.01;97.23;97223.59;5144424;27;19924;-65
2022/05/23 02:32:08;;;;;;;;;;;;;;;18.95;96.47;97218.72;5142182;27;20014;-63
2022/05/23 02:34:35;;;;;;;;;;;;;;;19.10;95.81;97228.91;5140915;27;19931;-65
2022/05/23 02:37:02;;;;;;;;;;;;;;;19.02;96.19;97233.31;5141884;27;19927;-64
2022/05/23 02:39:29;;;;;;;;;;;;;;;18.83;98.71;97247.34;5144222;27;19923;-63
2022/05/23 02:41:55;;;;;;;;;;;;;;;19.73;92.57;97238.44;5142356;27;19990;-64
2022/05/23 02:44:21;;;;;;;;;;;;;;;19.93;90.29;97246.44;5140363;27;19938;-63
2022/05/23 02:46:48;;;;;;;;;;;;;;;20.24;87.84;97245.06;5140534;27;19983;-64
2022/05/23 02:49:14;;;;;;;;;;;;;;;20.41;86.73;97240.22;5143659;27;19919;-63
2022/05/23 02:51:42;;;;;;;;;;;;;;;19.93;89.93;97243.72;5143930;27;19923;-64
2022/05/23 02:54:08;;;;;;;;;;;;;;;19.49;93.87;97233.78;5141671;27;19979;-64
2022/05/23 02:56:34;;;;;;;;;;;;;;;19.08;95.92;97234.69;5140475;27;20000;-63
2022/05/23 02:59:01;;;;;;;;;;;;;;;18.72;99.59;97221.03;5141665;27;19987;-63
2022/05/23 03:01:27;;;;;;;;;;;;;;;18.70;99.72;97224.06;5143882;27;19982;-64
2022/05/23 03:03:53;;;;;;;;;;;;;;;18.59;100.00;97222.09;5143544;27;19984;-63
2022/05/23 03:06:19;;;;;;;;;;;;;;;19.15;97.28;97209.78;5140703;27;19924;-63
2022/05/23 03:08:47;;;;;;;;;;;;;;;18.66;98.80;97204.19;5140557;27;19991;-63
2022/05/23 03:11:13;;;;;;;;;;;;;;;19.10;97.20;97205.34;5143545;27;19983;-63
2022/05/23 03:13:39;;;;;;;;;;;;;;;19.42;93.42;97202.97;5142940;27;19924;-64
2022/05/23 03:16:08;;;;;;;;;;;;;;;19.61;93.04;97200.50;5141801;27;19923;-63
2022/05/23 03:18:34;;;;;;;;;;;;;;;20.05;89.29;97191.44;5140457;27;19955;-64
2022/05/23 03:21:01;;;;;;;;;;;;;;;20.16;88.50;97187.13;5141141;27;19959;-64
2022/05/23 03:29:00;;;;;;;;;;;;;;;20.40;86.85;97165.41;5140749;27;19950;-64
2022/05/23 03:31:27;;;;;;;;;;;;;;;20.56;85.80;97162.75;5143576;27;19923;-63
2022/05/23 03:33:53;;;;;;;;;;;;;;;20.67;84.25;97158.41;5143247;27;19923;-63
2022/05/23 03:36:20;;;;;;;;;;;;;;;20.63;83.82;97162.16;5140070;27;19986;-63
2022/05/23 03:38:46;;;;;;;;;;;;;;;20.72;82.78;97160.06;5139965;28;19924;-63
2022/05/23 03:41:14;;;;;;;;;;;;;;;20.11;86.19;97157.56;5142578;27;19935;-63
2022/05/23 03:43:40;;;;;;;;;;;;;;;19.90;87.77;97151.47;5142461;27;20002;-64
2022/05/23 03:46:07;;;;;;;;;;;;;;;19.55;89.14;97158.53;5141510;28;19975;-63
2022/05/23 03:48:37;;;;;;;;;;;;;;;19.76;87.68;97148.34;5140017;28;19924;-63
2022/05/23 03:51:03;;;;;;;;;;;;;;;19.50;87.35;97151.41;5141315;28;20010;-64
2022/05/23 03:53:30;;;;;;;;;;;;;;;19.81;86.47;97157.03;5143317;28;19986;-63
2022/05/23 03:55:57;;;;;;;;;;;;;;;20.08;85.48;97163.66;5142712;28;19923;-65
2022/05/23 03:58:24;;;;;;;;;;;;;;;20.08;84.48;97160.16;5139807;28;19924;-64
2022/05/23 04:00:51;;;;;;;;;;;;;;;20.27;83.17;97157.66;5139581;28;20050;-63
2022/05/23 04:03:21;;;;;;;;;;;;;;;19.89;83.81;97144.50;5143372;28;19958;-64
2022/05/23 04:05:48;;;;;;;;;;;;;;;19.52;85.58;97153.78;5142975;28;19927;-63
2022/05/23 04:08:14;;;;;;;;;;;;;;;19.22;88.11;97150.44;5140250;28;19928;-64
2022/05/23 04:10:40;;;;;;;;;;;;;;;18.61;92.14;97152.22;5139648;28;19930;-63
2022/05/23 04:13:07;;;;;;;;;;;;;;;18.09;96.77;97152.66;5140545;28;20532;-64
2022/05/23 04:15:35;;;;;;;;;;;;;;;18.03;98.63;97158.56;5143210;28;19930;-64
2022/05/23 04:18:02;;;;;;;;;;;;;;;18.01;99.35;97160.81;5141660;28;19950;-63
2022/05/23 04:20:28;;;;;;;;;;;;;;;18.02;99.90;97152.38;5139556;28;19988;-64
2022/05/23 04:22:54;;;;;;;;;;;;;;;18.08;99.84;97161.06;5139679;28;19966;-63
2022/05/23 04:25:21;;;;;;;;;;;;;;;18.74;95.73;97151.16;5143115;28;20005;-63
2022/05/23 04:27:47;;;;;;;;;;;;;;;18.62;95.96;97151.13;5142842;28;19982;-64
2022/05/23 04:30:13;;;;;;;;;;;;;;;19.28;90.83;97147.19;5140081;28;19983;-63
2022/05/23 04:35:26;;;;;;;;;;;;;;;18.72;93.80;97137.94;5133518;27;20056;-63
2022/05/23 04:37:53;;;;;;;;;;;;;;;18.68;94.96;97134.34;5143032;27;19953;-63
2022/05/23 04:40:22;;;;;;;;;;;;;;;18.81;94.40;97146.00;5135116;27;19988;-63
2022/05/23 04:42:48;;;;;;;;;;;;;;;19.26;91.20;97141.31;5141998;27;19924;-63
2022/05/23 04:45:15;;;;;;;;;;;;;;;19.18;91.33;97139.53;5146121;27;20062;-63
2022/05/23 04:50:27;;;;;;;;;;;;;;;18.95;92.92;97143.75;5135811;27;20034;-64
2022/05/23 04:52:56;;;;;;;;;;;;;;;18.75;94.86;97139.22;5142737;27;19962;-65
2022/05/23 04:55:22;;;;;;;;;;;;;;;18.58;96.40;97131.25;5146595;27;20045;-64
2022/05/23 04:57:49;;;;;;;;;;;;;;;18.70;95.28;97121.28;5146229;27;19966;-64
2022/05/23 05:00:18;;;;;;;;;;;;;;;18.80;95.30;97133.59;5143060;27;19923;-63
2022/05/23 05:02:46;;;;;;;;;;;;;;;18.61;96.41;97125.19;5142246;27;20052;-64
2022/05/23 05:05:13;;;;;;;;;;;;;;;18.69;95.54;97132.44;5145507;27;19930;-65
2022/05/23 05:07:39;;;;;;;;;;;;;;;18.56;95.87;97125.41;5146013;27;19990;-63
2022/05/23 05:10:06;;;;;;;;;;;;;;;18.19;97.48;97119.03;5144025;27;19931;-64
2022/05/23 05:12:32;;;;;;;;;;;;;;;18.08;99.31;97112.44;5141311;27;19932;-64
2022/05/23 05:14:59;;;;;;;;;;;;;;;17.87;100.00;97123.25;5143386;27;19930;-63
2022/05/23 05:17:26;;;;;;;;;;;;;;;17.88;100.00;97121.34;5146001;27;19924;-64
2022/05/23 05:19:53;;;;;;;;;;;;;;;17.86;100.00;97108.16;5145950;27;19986;-64
2022/05/23 05:22:20;;;;;;;;;;;;;;;17.64;100.00;97103.84;5134254;27;19987;-65
2022/05/23 05:24:46;;;;;;;;;;;;;;;17.63;100.00;97106.91;5142061;27;19919;-63
2022/05/23 05:27:13;;;;;;;;;;;;;;;17.68;100.00;97109.41;5144921;27;19928;-64
2022/05/23 05:29:41;;;;;;;;;;;;;;;17.79;100.00;97118.72;5145490;27;19963;-64
2022/05/23 05:32:09;;;;;;;;;;;;;;;17.92;100.00;97128.44;5143342;27;19933;-64
2022/05/23 05:34:38;;;;;;;;;;;;;;;17.73;100.00;97130.81;5142121;27;19920;-64
2022/05/23 05:37:10;;;;;;;;;;;;;;;17.75;100.00;97133.97;5143655;27;19924;-63
2022/05/23 05:39:38;;;;;;;;;;;;;;;17.79;100.00;97140.31;5145704;27;20029;-64
2022/05/23 05:42:11;;;;;;;;;;;;;;;18.05;100.00;97140.13;5142806;27;19923;-64
2022/05/23 05:44:40;;;;;;;;;;;;;;;17.74;100.00;97141.28;5141950;27;19923;-62
2022/05/23 05:47:08;;;;;;;;;;;;;;;17.82;100.00;97131.56;5142868;27;19920;-63
2022/05/23 05:49:36;;;;;;;;;;;;;;;17.78;100.00;97136.03;5145669;27;19924;-65
2022/05/23 05:52:06;;;;;;;;;;;;;;;17.79;100.00;97137.63;5143973;27;19994;-63
2022/05/23 05:54:33;;;;;;;;;;;;;;;17.92;100.00;97135.78;5141906;27;19986;-64
2022/05/23 05:57:02;;;;;;;;;;;;;;;17.86;100.00;97132.47;5142594;27;19990;-63
2022/05/23 05:59:29;;;;;;;;;;;;;;;17.83;100.00;97119.63;5145092;27;19987;-64
2022/05/23 06:01:55;;;;;;;;;;;;;;;17.90;100.00;97121.78;5144771;27;19982;-64
2022/05/23 06:04:21;;;;;;;;;;;;;;;17.91;100.00;97135.00;5141638;27;19930;-63
2022/05/23 06:12:17;;;;;;;;;;;;;;;17.95;100.00;97125.09;5141197;27;19946;-64
2022/05/23 06:14:44;;;;;;;;;;;;;;;18.07;100.00;97125.16;5141172;27;19930;-63
2022/05/23 06:17:11;;;;;;;;;;;;;;;18.21;100.00;97120.28;5143686;27;19928;-63
2022/05/23 06:19:38;;;;;;;;;;;;;;;18.06;100.00;97120.09;5144723;27;19986;-64
2022/05/23 06:22:04;;;;;;;;;;;;;;;18.33;100.00;97114.94;5142993;27;19933;-63
2022/05/23 06:24:31;;;;;;;;;;;;;;;18.31;100.00;97114.47;5141171;27;19999;-63
2022/05/23 06:27:00;;;;;;;;;;;;;;;18.12;100.00;97130.38;5141322;27;19930;-64
2022/05/23 06:29:26;;;;;;;;;;;;;;;18.18;100.00;97128.25;5144518;27;19968;-65
2022/05/23 06:31:52;;;;;;;;;;;;;;;18.39;100.00;97141.75;5144127;27;19928;-65
2022/05/23 06:34:19;;;;;;;;;;;;;;;18.32;100.00;97137.66;5132196;27;19934;-64
2022/05/23 06:36:45;;;;;;;;;;;;;;;18.10;100.00;97143.44;5140456;27;19924;-64
2022/05/23 06:39:12;;;;;;;;;;;;;;;18.16;100.00;97147.53;5143345;27;19928;-64
2022/05/23 06:41:38;;;;;;;;;;;;;;;18.20;100.00;97153.03;5144447;27;19923;-64
2022/05/23 06:44:06;;;;;;;;;;;;;;;18.14;98.88;97157.06;5141294;27;20014;-63
2022/05/23 06:46:32;;;;;;;;;;;;;;;18.15;99.12;97162.13;5140883;27;19991;-64
2022/05/23 06:49:00;;;;;;;;;;;;;;;18.33;98.55;97165.50;5141225;27;19923;-65
2022/05/23 06:51:26;;;;;;;;;;;;;;;18.30;96.28;97148.03;5144015;27;19951;-64
2022/05/23 06:53:56;;;;;;;;;;;;;;;18.37;95.94;97149.41;5143616;27;19967;-63
2022/05/23 06:56:22;;;;;;;;;;;;;;;18.58;94.96;97152.91;5132658;27;19927;-63
2022/05/23 06:58:49;;;;;;;;;;;;;;;18.52;93.92;97170.44;5139600;27;19987;-65
2022/05/23 07:01:18;;;;;;;;;;;;;;;18.48;93.55;97183.81;5143444;27;19935;-63
2022/05/23 07:03:46;;;;;;;;;;;;;;;18.58;93.60;97196.16;5143671;27;20014;-64
2022/05/23 07:14:24;;;;;;;;;;;;;;;19.23;87.88;97271.13;5143734;27;19930;-63
2022/05/23 07:16:52;;;;;;;;;;;;;;;19.52;86.25;97289.19;5143568;27;19988;-64
2022/05/23 07:19:19;;;;;;;;;;;;;;;19.76;85.16;97321.75;5131588;27;19976;-63
2022/05/23 07:21:45;;;;;;;;;;;;;;;19.69;85.54;97329.63;5139958;27;19966;-64
2022/05/23 07:24:11;;;;;;;;;;;;;;;19.76;85.76;97348.81;5142623;27;20018;-63
2022/05/23 07:26:38;;;;;;;;;;;;;;;19.68;86.49;97336.19;5143627;27;19934;-64
2022/05/23 07:29:04;;;;;;;;;;;;;;;19.86;87.58;97316.69;5141837;27;20414;-63
2022/05/23 07:31:31;;;;;;;;;;;;;;;19.79;89.17;97312.94;5139966;27;19919;-64
2022/05/23 07:33:59;;;;;;;;;;;;;;;19.90;89.44;97295.09;5140252;27;19924;-65
2022/05/23 07:36:25;;;;;;;;;;;;;;;19.70;90.74;97291.38;5143569;27;19924;-64
2022/05/23 07:38:52;;;;;;;;;;;;;;;19.66;90.99;97300.50;5143308;27;19924;-65
2022/05/23 07:41:18;;;;;;;;;;;;;;;19.83;91.66;97294.88;5139987;27;19924;-64
2022/05/23 07:43:45;;;;;;;;;;;;;;;19.92;91.66;97290.94;5138549;27;19984;-64
2022/05/23 07:46:13;;;;;;;;;;;;;;;20.06;90.40;97281.66;5140691;28;19927;-65
2022/05/23 07:48:40;;;;;;;;;;;;;;;20.03;88.71;97271.50;5139819;28;20530;-64
2022/05/23 07:51:08;;;;;;;;;;;;;;;20.01;88.50;97274.56;5141566;28;19924;-63
2022/05/23 08:01:48;;;;;;;;;;;;;;;20.19;97.83;97267.78;5143058;28;19946;-64
2022/05/23 08:04:14;;;;;;;;;;;;;;;20.09;100.00;97253.88;5140309;28;19923;-64
2022/05/23 08:06:42;;;;;;;;;;;;;;;19.87;100.00;97236.16;5139542;28;19935;-62
2022/05/23 08:09:09;;;;;;;;;;;;;;;19.47;100.00;97216.28;5141757;27;19979;-64
2022/05/23 08:11:36;;;;;;;;;;;;;;;19.02;100.00;97189.22;5146778;27;19923;-64
2022/05/23 08:14:02;;;;;;;;;;;;;;;18.79;100.00;97176.06;5144568;27;19919;-64
2022/05/23 08:16:30;;;;;;;;;;;;;;;18.51;100.00;97150.72;5143995;27;19955;-63
2022/05/23 08:18:56;;;;;;;;;;;;;;;18.26;100.00;97135.50;5144063;27;19924;-63
2022/05/23 08:21:23;;;;;;;;;;;;;;;18.53;100.00;97116.06;5147491;27;19924;-62
2022/05/23 08:23:50;;;;;;;;;;;;;;;18.29;100.00;97103.19;5147231;27;19923;-63
2022/05/23 08:26:18;;;;;;;;;;;;;;;18.06;100.00;97093.88;5143723;27;20403;-64
2022/05/23 08:28:45;;;;;;;;;;;;;;;17.82;100.00;97093.75;5143223;27;19991;-63
2022/05/23 08:31:11;;;;;;;;;;;;;;;17.79;100.00;97100.56;5145998;27;20857;-63
2022/05/23 08:33:37;;;;;;;;;;;;;;;17.82;100.00;97099.16;5146618;27;19930;-63
2022/05/23 08:36:04;;;;;;;;;;;;;;;17.78;100.00;97092.81;5145257;27;19978;-64
2022/05/23 08:38:32;;;;;;;;;;;;;;;17.86;100.00;97093.88;5143311;27;19943;-64
2022/05/23 08:41:06;;;;;;;;;;;;;;;18.01;100.00;97072.44;5143606;27;19991;-64
2022/05/23 08:43:39;;;;;;;;;;;;;;;18.25;100.00;97063.66;5148527;27;19983;-64
2022/05/23 08:46:08;;;;;;;;;;;;;;;18.01;100.00;97075.13;5144685;27;19967;-64
2022/05/23 08:48:49;;;;;;;;;;;;;;;18.08;100.00;97067.28;5146541;27;19935;-64
2022/05/23 08:51:18;;;;;;;;;;;;;;;18.23;100.00;97055.06;5143361;27;19969;-63
2022/05/23 08:53:47;;;;;;;;;;;;;;;18.38;100.00;97042.88;5143143;27;19927;-64
2022/05/23 08:56:19;;;;;;;;;;;;;;;18.60;100.00;97034.38;5146144;27;20172;-64
2022/05/23 08:58:49;;;;;;;;;;;;;;;18.71;100.00;97030.91;5146580;27;19924;-63
2022/05/23 09:01:18;;;;;;;;;;;;;;;18.88;100.00;97021.78;5143447;27;20560;-63
2022/05/23 09:03:49;;;;;;;;;;;;;;;18.71;100.00;97025.50;5143020;27;20003;-63
2022/05/23 09:06:18;;;;;;;;;;;;;;;18.82;100.00;97017.72;5146098;27;19924;-63
2022/05/23 09:08:48;;;;;;;;;;;;;;;18.77;100.00;97007.13;5145925;27;20000;-63
2022/05/23 09:11:26;;;;;;;;;;;;;;;18.78;100.00;96989.78;5142634;27;19955;-64
2022/05/23 09:13:52;;;;;;;;;;;;;;;18.77;100.00;96986.28;5143056;27;19949;-64
2022/05/23 09:16:18;;;;;;;;;;;;;;;18.95;100.00;96988.75;5133818;27;19987;-63
2022/05/23 09:18:48;;;;;;;;;;;;;;;18.96;100.00;96983.00;5142112;27;19923;-64
2022/05/23 09:21:15;;;;;;;;;;;;;;;18.91;100.00;96985.16;5144066;27;19927;-64
2022/05/23 09:23:45;;;;;;;;;;;;;;;19.13;100.00;96977.34;5145038;27;19959;-64
2022/05/23 09:26:16;;;;;;;;;;;;;;;19.40;100.00;96965.06;5142738;27;20009;-64
2022/05/23 09:28:43;;;;;;;;;;;;;;;19.38;100.00;96962.63;5141764;27;19991;-63
2022/05/23 09:31:27;;;;;;;;;;;;;;;19.53;100.00;96952.25;5144087;27;19931;-63
2022/05/23 09:33:56;;;;;;;;;;;;;;;19.59;100.00;96942.75;5145599;27;20022;-64
2022/05/23 09:36:25;;;;;;;;;;;;;;;19.38;100.00;96953.72;5142221;27;19924;-63
2022/05/23 09:38:54;;;;;;;;;;;;;;;19.43;100.00;96939.19;5141640;27;20029;-65
2022/05/23 09:49:57;;;;;;;;;;;;;;;20.13;99.33;96924.88;5144370;27;19924;-65
2022/05/23 09:52:27;;;;;;;;;;;;;;;20.42;100.00;96932.59;5141611;27;19931;-65
2022/05/23 09:54:58;;;;;;;;;;;;;;;20.60;97.96;96930.34;5141790;27;19950;-65
2022/05/23 09:57:25;;;;;;;;;;;;;;;20.54;94.73;96944.50;5145455;27;20002;-66
2022/05/23 09:59:58;;;;;;;;;;;;;;;20.58;95.56;96937.25;5144792;27;19940;-66
2022/05/23 10:02:34;;;;;;;;;;;;;;;20.51;94.72;96931.66;5133865;27;19924;-65
2022/05/23 10:05:01;;;;;;;;;;;;;;;20.49;96.16;96928.53;5141881;27;19920;-64
2022/05/23 10:07:29;;;;;;;;;;;;;;;20.46;96.63;96924.56;5144636;27;19924;-64
2022/05/23 10:09:58;;;;;;;;;;;;;;;20.62;97.08;96908.28;5144360;27;19924;-65
2022/05/23 10:12:25;;;;;;;;;;;;;;;20.66;94.73;96911.88;5127556;27;20168;-65
2022/05/23 10:14:53;;;;;;;;;;;;;;;20.55;92.10;96908.13;5144838;27;19927;-65
2022/05/23 10:17:28;;;;;;;;;;;;;;;20.57;90.97;96905.84;5132772;27;20390;-64
2022/05/23 10:20:14;;;;;;;;;;;;;;;20.53;92.00;96911.19;5140705;27;19927;-64
2022/05/23 10:22:54;;;;;;;;;;;;;;;20.61;93.69;96914.84;5144452;27;19969;-65
2022/05/23 10:25:21;;;;;;;;;;;;;;;20.93;93.08;96903.59;5132850;27;20540;-64
2022/05/23 10:27:51;;;;;;;;;;;;;;;21.12;91.87;96905.59;5140704;27;19990;-65
2022/05/23 10:30:19;;;;;;;;;;;;;;;21.13;91.57;96906.38;5144054;27;19931;-64
2022/05/23 10:32:48;;;;;;;;;;;;;;;21.20;90.62;96898.38;5143933;27;19979;-64
2022/05/23 10:35:18;;;;;;;;;;;;;;;21.26;89.58;96905.88;5141855;27;19927;-65
2022/05/23 10:37:46;;;;;;;;;;;;;;;21.39;89.75;96909.25;5141154;27;19975;-65
2022/05/23 10:43:02;;;;;;;;;;;;;;;21.15;89.93;96901.38;5135649;27;20000;-64
2022/05/23 10:45:32;;;;;;;;;;;;;;;21.09;89.78;96916.34;5144351;27;19983;-65
2022/05/23 10:48:06;;;;;;;;;;;;;;;21.30;89.52;96909.47;5143503;27;19923;-65
2022/05/23 10:50:35;;;;;;;;;;;;;;;21.64;89.27;96910.53;5140728;27;19923;-66
2022/05/23 10:53:08;;;;;;;;;;;;;;;21.76;88.17;96910.38;5141587;27;19991;-65
2022/05/23 10:55:40;;;;;;;;;;;;;;;21.68;87.05;96918.75;5143865;27;19955;-64
2022/05/23 10:58:14;;;;;;;;;;;;;;;21.72;87.63;96922.34;5141968;27;19923;-66
2022/05/23 11:00:45;;;;;;;;;;;;;;;21.62;85.45;96912.03;5140327;27;19995;-65
2022/05/23 11:03:18;;;;;;;;;;;;;;;21.65;84.71;96911.31;5142482;27;19920;-64
2022/05/23 11:05:50;;;;;;;;;;;;;;;21.68;85.55;96916.84;5143851;27;19923;-65
2022/05/23 11:08:30;;;;;;;;;;;;;;;21.65;86.58;96903.97;5140421;27;19923;-65
2022/05/23 11:10:59;;;;;;;;;;;;;;;21.77;86.54;96913.88;5140613;27;19979;-65
2022/05/23 11:13:34;;;;;;;;;;;;;;;21.68;89.09;96911.41;5145777;27;21289;-65
2022/05/23 11:16:06;;;;;;;;;;;;;;;21.66;88.76;96912.91;5141223;27;20599;-64
2022/05/23 11:18:42;;;;;;;;;;;;;;;21.57;86.63;96902.22;5144073;27;20357;-65
2022/05/23 11:21:10;;;;;;;;;;;;;;;21.66;84.74;96908.25;5141680;27;20019;-66
2022/05/23 11:23:41;;;;;;;;;;;;;;;21.63;85.81;96900.81;5140446;27;19923;-65
2022/05/23 11:26:09;;;;;;;;;;;;;;;21.58;85.25;96903.81;5142181;27;19959;-65
2022/05/23 11:34:18;;;;;;;;;;;;;;;21.82;83.65;96895.34;5143139;27;19923;-64
2022/05/23 11:36:56;;;;;;;;;;;;;;;21.87;84.54;96888.84;5143688;27;19923;-64
2022/05/23 11:39:41;;;;;;;;;;;;;;;21.88;84.79;96883.06;5132452;27;19924;-65
2022/05/23 11:42:12;;;;;;;;;;;;;;;21.92;86.45;96878.50;5142713;27;19923;-65
2022/05/23 11:44:56;;;;;;;;;;;;;;;21.68;87.12;96878.00;5142302;27;19924;-65
2022/05/23 11:47:25;;;;;;;;;;;;;;;21.61;88.98;96866.97;5132297;28;19962;-65
2022/05/23 11:50:02;;;;;;;;;;;;;;;21.64;91.78;96869.78;5140461;28;19927;-65
2022/05/23 11:52:33;;;;;;;;;;;;;;;21.61;93.54;96872.41;5132843;28;19992;-65
2022/05/23 11:54:59;;;;;;;;;;;;;;;21.59;91.48;96863.84;5140001;28;19983;-62
2022/05/23 11:57:36;;;;;;;;;;;;;;;21.48;91.61;96853.56;5142780;28;19927;-61
2022/05/23 12:00:23;;;;;;;;;;;;;;;21.61;91.65;96850.69;5141652;28;19923;-64
2022/05/23 12:03:04;;;;;;;;;;;;;;;21.78;90.62;96853.75;5139345;28;19935;-65
2022/05/23 12:05:32;;;;;;;;;;;;;;;21.77;88.70;96835.06;5132690;28;19974;-65
2022/05/23 12:08:02;;;;;;;;;;;;;;;21.95;87.95;96825.31;5139648;28;19931;-63
2022/05/23 12:10:58;;;;;;;;;;;;;;;21.97;86.28;96842.06;5142745;28;19924;-65
2022/05/23 12:13:36;;;;;;;;;;;;;;;22.21;86.52;96841.69;5099804;28;19983;-66
2022/05/23 12:16:17;;;;;;;;;;;;;;;22.29;86.42;96848.81;5141629;28;19927;-65
2022/05/23 12:18:47;;;;;;;;;;;;;;;22.29;85.94;96853.47;5139334;28;19992;-66
2022/05/23 12:21:29;;;;;;;;;;;;;;;22.20;86.14;96844.78;5142016;28;19928;-68
2022/05/23 12:24:11;;;;;;;;;;;;;;;22.25;86.00;96831.66;5142570;27;19995;-66
2022/05/23 12:26:38;;;;;;;;;;;;;;;22.37;85.76;96830.69;5139090;28;19930;-65
2022/05/23 12:29:26;;;;;;;;;;;;;;;22.44;85.52;96817.97;5140457;28;19927;-66
2022/05/23 12:32:11;;;;;;;;;;;;;;;22.39;86.04;96815.56;5142796;28;19924;-66
2022/05/23 12:34:41;;;;;;;;;;;;;;;22.19;87.33;96814.06;5133398;28;19949;-66
2022/05/23 12:37:14;;;;;;;;;;;;;;;22.32;88.61;96814.66;5141163;28;19951;-67
2022/05/23 12:39:49;;;;;;;;;;;;;;;22.40;89.73;96795.38;5142991;28;19961;-67
2022/05/23 12:42:30;;;;;;;;;;;;;;;23.35;92.41;96806.75;5141715;28;19983;-66
2022/05/23 12:45:18;;;;;;;;;;;;;;;23.84;88.03;96814.69;5142227;28;20507;-66
2022/05/23 12:48:08;;;;;;;;;;;;;;;23.36;84.46;96804.81;5139263;28;19923;-67
2022/05/23 12:54:00;;;;;;;;;;;;;;;23.58;82.69;96801.97;5110940;28;20418;-68
2022/05/23 12:56:36;;;;;;;;;;;;;;;23.34;83.45;96801.66;5109861;28;19983;-66
2022/05/23 12:59:11;;;;;;;;;;;;;;;23.30;84.34;96793.47;5120233;28;19924;-65
2022/05/23 13:01:40;;;;;;;;;;;;;;;23.85;85.88;96780.03;5122912;28;19955;-65
2022/05/23 13:04:09;;;;;;;;;;;;;;;23.87;80.73;96778.47;5120938;28;19963;-65
2022/05/23 13:06:38;;;;;;;;;;;;;;;23.67;79.94;96774.41;5119174;28;19974;-67
2022/05/23 13:09:07;;;;;;;;;;;;;;;23.78;81.33;96788.91;5120478;28;19951;-67
2022/05/23 13:11:36;;;;;;;;;;;;;;;23.75;79.70;96775.25;5123279;28;19970;-67
2022/05/23 13:14:02;;;;;;;;;;;;;;;23.75;80.26;96770.59;5121394;28;19924;-66
2022/05/23 13:16:30;;;;;;;;;;;;;;;23.62;80.73;96764.63;5122562;28;19924;-66
2022/05/23 13:27:12;;;;;;;;;;;;;;;23.76;82.57;96796.69;5144260;27;19950;-65
2022/05/23 13:29:38;;;;;;;;;;;;;;;23.69;80.12;96782.22;5145196;27;19991;-64
2022/05/23 13:32:07;;;;;;;;;;;;;;;23.60;81.41;96791.50;5143553;27;19949;-64
2022/05/23 13:34:34;;;;;;;;;;;;;;;23.78;81.26;96786.19;5141888;27;20362;-65
2022/05/23 13:37:02;;;;;;;;;;;;;;;23.87;82.38;96792.13;5142546;27;20455;-65
2022/05/23 13:39:29;;;;;;;;;;;;;;;23.91;81.40;96794.88;5145169;27;19935;-65
2022/05/23 13:41:55;;;;;;;;;;;;;;;23.85;80.81;96780.03;5143920;27;19923;-65
2022/05/23 13:44:23;;;;;;;;;;;;;;;23.89;81.32;96780.84;5145274;27;20024;-64
2022/05/23 13:46:51;;;;;;;;;;;;;;;23.86;81.34;96784.34;5145362;27;19946;-65
2022/05/23 13:49:19;;;;;;;;;;;;;;;23.95;80.81;96780.09;5142108;27;19955;-66
2022/05/23 13:51:51;;;;;;;;;;;;;;;23.90;80.48;96777.72;5141799;27;20052;-65
2022/05/23 13:54:22;;;;;;;;;;;;;;;23.92;80.86;96774.66;5145144;27;19930;-64
2022/05/23 13:56:49;;;;;;;;;;;;;;;23.93;82.04;96778.91;5145160;27;19924;-64
2022/05/23 13:59:20;;;;;;;;;;;;;;;23.87;83.15;96777.69;5142075;27;19950;-65
2022/05/23 14:01:48;;;;;;;;;;;;;;;23.94;82.62;96788.66;5141571;27;20007;-65
2022/05/23 14:04:16;;;;;;;;;;;;;;;24.10;80.77;96800.91;5144770;27;19963;-64